Asphalt Eagle — SVBC6 — position and weather

sailwx.info

Track history (hours):
 
Tides and Currents Weather Stations Pressure Air Temp Water Temp Dewpoint Dewpoint Depression Visibility Wind Speed Wind Dir Waves Ship Positions

Asphalt Eagle

Last reported at 2018-Jun-19 02:03 UTC. Time now 2018-Jun-23 15:48 UTC.
Position N 35°40' W 030°16'.

Length 183 m; draft 11.3 m.

Type: Ship (hazmat cat A). MMSI: 241055000.

Date/timePositionNaut miles runAvg speedWind from/ knotsBaromVisibWave heightAir tempDewpointWater temp
2018-Jun-19 02:03N 35°40' W 030°16'113.4
2018-Jun-19 01:59N 35°40' W 030°15'813.9
2018-Jun-19 01:24N 35°40' W 030°05'2713.7
2018-Jun-18 23:26N 35°40' W 029°32'613.8
2018-Jun-18 22:59N 35°40' W 029°24'7813.0
2018-Jun-18 17:01N 35°41' W 027°48'012.2
2018-Jun-18 17:00N 35°41' W 027°48'612.7
2018-Jun-18 16:30N 35°40' W 027°40'712.9
2018-Jun-18 15:59N 35°40' W 027°32'813.1
2018-Jun-18 15:23N 35°40' W 027°22'2713.4
2018-Jun-18 13:22N 35°40' W 026°49'613.6
2018-Jun-18 12:55N 35°40' W 026°42'913.6
2018-Jun-18 12:16N 35°40' W 026°31'513.1
2018-Jun-18 11:55N 35°40' W 026°25'613.4
2018-Jun-18 11:27N 35°40' W 026°17'1013.4
2018-Jun-18 10:45N 35°40' W 026°05'2213.5
2018-Jun-18 09:06N 35°40' W 025°38'113.5
2018-Jun-18 09:00N 35°40' W 025°36'713.6
2018-Jun-18 08:30N 35°40' W 025°28'1013.5
2018-Jun-18 07:47N 35°40' W 025°16'1113.4
2018-Jun-18 06:56N 35°40' W 025°02'613.1
2018-Jun-18 06:27N 35°40' W 024°54'613.7
2018-Jun-18 06:00N 35°40' W 024°47'713.6
2018-Jun-18 05:30N 35°41' W 024°38'613.2
2018-Jun-18 05:00N 35°41' W 024°30'1213.5
2018-Jun-18 04:08N 35°41' W 024°16'213.6
2018-Jun-18 04:00N 35°41' W 024°14'713.5
2018-Jun-18 03:29N 35°41' W 024°05'813.7
2018-Jun-18 02:52N 35°41' W 023°55'613.6
2018-Jun-18 02:28N 35°41' W 023°48'613.5
2018-Jun-18 02:00N 35°41' W 023°40'913.8
2018-Jun-18 01:21N 35°42' W 023°29'513.7
2018-Jun-18 01:00N 35°42' W 023°23'60513.3
2018-Jun-16 03:32N 35°56' W 010°57'512.5
2018-Jun-16 03:09N 35°56' W 010°51'1612.3
2018-Jun-16 01:52N 35°56' W 010°31'1011.9
2018-Jun-16 01:01N 35°56' W 010°19'1011.8
2018-Jun-16 00:10N 35°57' W 010°06'312.1
2018-Jun-15 23:57N 35°57' W 010°03'512.0
2018-Jun-15 23:30N 35°57' W 009°57'611.8
2018-Jun-15 22:59N 35°57' W 009°49'612.0
2018-Jun-15 22:30N 35°57' W 009°42'812.1
2018-Jun-15 21:51N 35°57' W 009°32'412.0
2018-Jun-15 21:30N 35°57' W 009°27'812.0
2018-Jun-15 20:50N 35°57' W 009°17'412.4
2018-Jun-15 20:29N 35°57' W 009°12'612.4
2018-Jun-15 19:58N 35°57' W 009°04'612.6
2018-Jun-15 19:31N 35°57' W 008°57'712.7
2018-Jun-15 18:58N 35°57' W 008°48'812.9
2018-Jun-15 18:22N 35°57' W 008°39'2113.2
2018-Jun-15 16:47N 35°57' W 008°13'413.6
2018-Jun-15 16:30N 35°57' W 008°08'713.8
2018-Jun-15 16:00N 35°57' W 007°60'813.7
2018-Jun-15 15:24N 35°57' W 007°49'1013.8
2018-Jun-15 14:38N 35°57' W 007°36'213.1
2018-Jun-15 14:30N 35°57' W 007°34'813.6
2018-Jun-15 13:56N 35°57' W 007°25'8812.8
2018-Jun-15 07:03N 35°58' W 005°36'110.8
2018-Jun-15 06:59N 35°58' W 005°35'510.3
2018-Jun-15 06:30N 35°60' W 005°29'510.2
2018-Jun-15 06:00N 36°02' W 005°23'510.0
2018-Jun-15 05:30N 36°07' W 005°22'0 0.8
2018-Jun-15 04:56N 36°07' W 005°21'0 0.2
2018-Jun-15 04:26N 36°07' W 005°21'0 0.1
2018-Jun-15 03:59N 36°07' W 005°21'0 0.4
2018-Jun-15 03:26N 36°07' W 005°21'0 0.1
2018-Jun-15 02:50N 36°07' W 005°21'0 0.2
2018-Jun-15 02:29N 36°07' W 005°21'0 0.1
2018-Jun-15 01:59N 36°07' W 005°21'0 0.0
2018-Jun-15 01:26N 36°07' W 005°21'0 0.1
2018-Jun-15 00:59N 36°07' W 005°21'0 0.2
2018-Jun-15 00:26N 36°07' W 005°21'0 0.0
2018-Jun-14 23:59N 36°07' W 005°21'0 0.0
2018-Jun-14 23:29N 36°07' W 005°21'0 0.1
2018-Jun-14 22:56N 36°07' W 005°21'0 0.0
2018-Jun-14 21:44N 36°07' W 005°21'0 0.2
2018-Jun-14 21:14N 36°07' W 005°21'0 0.3
2018-Jun-14 20:59N 36°07' W 005°21'0 0.1
2018-Jun-14 20:20N 36°07' W 005°21'0 0.1
2018-Jun-14 20:00N 36°07' W 005°21'0 0.4
2018-Jun-14 19:29N 36°07' W 005°21'2 4.0
2018-Jun-14 19:00N 36°05' W 005°20'3 6.2
2018-Jun-14 18:30N 36°05' W 005°16'1 2.6
2018-Jun-14 18:00N 36°05' W 005°15'0 0.7
2018-Jun-14 17:30N 36°05' W 005°15'2 4.0
2018-Jun-14 17:01N 36°05' W 005°13'20811.6
2018-Jun-13 23:01N 37°11' W 001°07'213.3
2018-Jun-13 22:51N 37°13' W 001°05'1713.3
2018-Jun-13 21:36N 37°24' W 000°49'113.0
2018-Jun-13 21:30N 37°24' W 000°48'612.9
2018-Jun-13 21:00N 37°28' W 000°41'713.2
2018-Jun-13 20:30N 37°33' W 000°35'713.3
2018-Jun-13 20:00N 37°38' W 000°30'713.6
2018-Jun-13 19:30N 37°44' W 000°25'713.9
2018-Jun-13 19:00N 37°49' W 000°20'713.7
2018-Jun-13 18:29N 37°55' W 000°15'713.5
2018-Jun-13 18:00N 38°01' W 000°11'197 4.0
2018-Jun-11 16:23N 41°01' E 001°33'513.1
2018-Jun-11 16:00N 41°01' E 001°39'713.2
2018-Jun-11 15:30N 41°01' E 001°48'713.3
2018-Jun-11 15:00N 41°02' E 001°57'713.5
2018-Jun-11 14:30N 41°04' E 002°05'714.0
2018-Jun-11 14:00N 41°07' E 002°14'714.0
2018-Jun-11 13:31N 41°09' E 002°22'713.9
2018-Jun-11 13:00N 41°11' E 002°31'1614.1
2018-Jun-11 11:50N 41°19' E 002°51'15313.4
2018-Jun-11 00:26N 42°19' E 005°59'614.6
2018-Jun-11 00:00N 42°21' E 006°07'714.6
2018-Jun-10 23:30N 42°24' E 006°16'714.7
2018-Jun-10 23:00N 42°27' E 006°25'714.7
2018-Jun-10 22:30N 42°30' E 006°34'714.8
2018-Jun-10 22:00N 42°33' E 006°44'714.8
2018-Jun-10 21:30N 42°35' E 006°53'714.7
2018-Jun-10 21:00N 42°38' E 007°02'714.6
2018-Jun-10 20:30N 42°41' E 007°11'714.6
2018-Jun-10 20:00N 42°44' E 007°20'714.6
2018-Jun-10 19:30N 42°47' E 007°29'714.6
2018-Jun-10 19:00N 42°50' E 007°39'714.8
2018-Jun-10 18:30N 42°53' E 007°48'714.6
2018-Jun-10 18:00N 42°56' E 007°57'714.3
2018-Jun-10 17:30N 42°59' E 008°06'714.1
2018-Jun-10 17:00N 43°01' E 008°15'714.3
2018-Jun-10 16:30N 43°04' E 008°24'714.3
2018-Jun-10 16:00N 43°07' E 008°33'714.4
2018-Jun-10 15:30N 43°10' E 008°42'714.5
2018-Jun-10 15:00N 43°13' E 008°51'1414.1
2018-Jun-10 14:00N 43°18' E 009°09'813.9
2018-Jun-10 13:28N 43°21' E 009°18'614.0
2018-Jun-10 13:01N 43°24' E 009°26'714.0
2018-Jun-10 12:31N 43°26' E 009°35'714.1
2018-Jun-10 12:00N 43°29' E 009°44'713.6
2018-Jun-10 11:30N 43°31' E 009°53'713.7
2018-Jun-10 11:00N 43°30' E 010°02'713.3
2018-Jun-10 10:30N 43°28' E 010°11'5 9.7
2018-Jun-10 10:00N 43°31' E 010°17'0 0.4
2018-Jun-10 09:29N 43°31' E 010°17'0 0.1
2018-Jun-10 08:59N 43°31' E 010°17'0 0.2
2018-Jun-10 08:30N 43°31' E 010°17'0 0.2
2018-Jun-10 08:00N 43°31' E 010°17'2 4.5
2018-Jun-10 07:30N 43°33' E 010°18'2 3.9
2018-Jun-10 07:00N 43°35' E 010°19'0 0.4
2018-Jun-10 06:28N 43°35' E 010°19'0 0.0
2018-Jun-10 05:58N 43°35' E 010°19'0 0.0
2018-Jun-10 05:28N 43°35' E 010°19'0 0.0
2018-Jun-10 04:58N 43°35' E 010°19'0 0.0
2018-Jun-10 04:28N 43°35' E 010°19'0 0.0
2018-Jun-10 03:58N 43°35' E 010°19'0 0.0
2018-Jun-10 03:28N 43°35' E 010°19'0 0.0
2018-Jun-10 02:58N 43°35' E 010°19'0 0.0
2018-Jun-10 02:28N 43°35' E 010°19'0 0.0
2018-Jun-10 01:55N 43°35' E 010°19'0 0.0
2018-Jun-10 01:25N 43°35' E 010°19'0 0.0
2018-Jun-10 00:58N 43°35' E 010°19'0 0.0
2018-Jun-10 00:28N 43°35' E 010°19'0 0.0
2018-Jun-09 23:58N 43°35' E 010°19'0 0.0
2018-Jun-09 23:28N 43°35' E 010°19'0 0.0
2018-Jun-09 22:58N 43°35' E 010°19'0 0.0
2018-Jun-09 22:25N 43°35' E 010°19'0 0.0
2018-Jun-09 21:58N 43°35' E 010°19'0 0.0
2018-Jun-09 21:28N 43°35' E 010°19'0 0.0
2018-Jun-09 20:55N 43°35' E 010°19'0 0.0
2018-Jun-09 20:28N 43°35' E 010°19'0 0.0
2018-Jun-09 19:58N 43°35' E 010°19'0 0.0
2018-Jun-09 19:25N 43°35' E 010°19'0 0.0
2018-Jun-09 18:58N 43°35' E 010°19'0 0.0
2018-Jun-09 18:28N 43°35' E 010°19'0 0.0
2018-Jun-09 17:52N 43°35' E 010°19'0 0.0
2018-Jun-09 17:25N 43°35' E 010°19'0 0.0
2018-Jun-09 16:58N 43°35' E 010°19'0 0.0
2018-Jun-09 16:28N 43°35' E 010°19'0 0.0
2018-Jun-09 15:58N 43°35' E 010°19'0 0.0
2018-Jun-09 14:58N 43°35' E 010°19'0 0.0
2018-Jun-09 14:28N 43°35' E 010°19'0 0.0
2018-Jun-09 13:55N 43°35' E 010°19'0 0.0
2018-Jun-09 13:25N 43°35' E 010°19'0 0.0
2018-Jun-09 12:58N 43°35' E 010°19'0 0.0
2018-Jun-09 12:28N 43°35' E 010°19'0 0.0
2018-Jun-09 11:52N 43°35' E 010°19'0 0.0
2018-Jun-09 11:28N 43°35' E 010°19'0 0.0
2018-Jun-09 10:58N 43°35' E 010°19'0 0.0
2018-Jun-09 10:28N 43°35' E 010°19'0 0.0
2018-Jun-09 09:58N 43°35' E 010°19'0 0.0
2018-Jun-09 09:22N 43°35' E 010°19'0 0.0
2018-Jun-09 08:58N 43°35' E 010°19'0 0.0
2018-Jun-09 08:28N 43°35' E 010°19'0 0.0
2018-Jun-09 07:58N 43°35' E 010°19'0 0.0
2018-Jun-09 07:28N 43°35' E 010°19'0 0.0
2018-Jun-09 06:58N 43°35' E 010°19'0 0.0
2018-Jun-09 06:28N 43°35' E 010°19'0 0.0
2018-Jun-09 05:58N 43°35' E 010°19'0 0.0
2018-Jun-09 05:28N 43°35' E 010°19'0 0.0
2018-Jun-09 04:58N 43°35' E 010°19'0 0.0
2018-Jun-09 04:28N 43°35' E 010°19'0 0.0
2018-Jun-09 03:55N 43°35' E 010°19'0 0.0
2018-Jun-09 03:28N 43°35' E 010°19'0 0.0
2018-Jun-09 02:58N 43°35' E 010°19'0 0.0
2018-Jun-09 02:28N 43°35' E 010°19'  
Track history (hours):
 
Tides and Currents Weather Stations Pressure Air Temp Water Temp Dewpoint Dewpoint Depression Visibility Wind Speed Wind Dir Waves Ship Positions

Asphalt Eagle

Last reported at 2018-Jun-19 02:03 UTC. Time now 2018-Jun-23 15:48 UTC.
Position N 35°40' W 030°16'.

Length 183 m; draft 11.3 m.

Type: Ship (hazmat cat A). MMSI: 241055000.

Date/timePositionNaut miles runAvg speedWind from/ knotsBaromVisibWave heightAir tempDewpointWater temp
2018-Jun-19 02:03N 35°40' W 030°16'113.4
2018-Jun-19 01:59N 35°40' W 030°15'813.9
2018-Jun-19 01:24N 35°40' W 030°05'2713.7
2018-Jun-18 23:26N 35°40' W 029°32'613.8
2018-Jun-18 22:59N 35°40' W 029°24'7813.0
2018-Jun-18 17:01N 35°41' W 027°48'012.2
2018-Jun-18 17:00N 35°41' W 027°48'612.7
2018-Jun-18 16:30N 35°40' W 027°40'712.9
2018-Jun-18 15:59N 35°40' W 027°32'813.1
2018-Jun-18 15:23N 35°40' W 027°22'2713.4
2018-Jun-18 13:22N 35°40' W 026°49'613.6
2018-Jun-18 12:55N 35°40' W 026°42'913.6
2018-Jun-18 12:16N 35°40' W 026°31'513.1
2018-Jun-18 11:55N 35°40' W 026°25'613.4
2018-Jun-18 11:27N 35°40' W 026°17'1013.4
2018-Jun-18 10:45N 35°40' W 026°05'2213.5
2018-Jun-18 09:06N 35°40' W 025°38'113.5
2018-Jun-18 09:00N 35°40' W 025°36'713.6
2018-Jun-18 08:30N 35°40' W 025°28'1013.5
2018-Jun-18 07:47N 35°40' W 025°16'1113.4
2018-Jun-18 06:56N 35°40' W 025°02'613.1
2018-Jun-18 06:27N 35°40' W 024°54'613.7
2018-Jun-18 06:00N 35°40' W 024°47'713.6
2018-Jun-18 05:30N 35°41' W 024°38'613.2
2018-Jun-18 05:00N 35°41' W 024°30'1213.5
2018-Jun-18 04:08N 35°41' W 024°16'213.6
2018-Jun-18 04:00N 35°41' W 024°14'713.5
2018-Jun-18 03:29N 35°41' W 024°05'813.7
2018-Jun-18 02:52N 35°41' W 023°55'613.6
2018-Jun-18 02:28N 35°41' W 023°48'613.5
2018-Jun-18 02:00N 35°41' W 023°40'913.8
2018-Jun-18 01:21N 35°42' W 023°29'513.7
2018-Jun-18 01:00N 35°42' W 023°23'60513.3
2018-Jun-16 03:32N 35°56' W 010°57'512.5
2018-Jun-16 03:09N 35°56' W 010°51'1612.3
2018-Jun-16 01:52N 35°56' W 010°31'1011.9
2018-Jun-16 01:01N 35°56' W 010°19'1011.8
2018-Jun-16 00:10N 35°57' W 010°06'312.1
2018-Jun-15 23:57N 35°57' W 010°03'512.0
2018-Jun-15 23:30N 35°57' W 009°57'611.8
2018-Jun-15 22:59N 35°57' W 009°49'612.0
2018-Jun-15 22:30N 35°57' W 009°42'812.1
2018-Jun-15 21:51N 35°57' W 009°32'412.0
2018-Jun-15 21:30N 35°57' W 009°27'812.0
2018-Jun-15 20:50N 35°57' W 009°17'412.4
2018-Jun-15 20:29N 35°57' W 009°12'612.4
2018-Jun-15 19:58N 35°57' W 009°04'612.6
2018-Jun-15 19:31N 35°57' W 008°57'712.7
2018-Jun-15 18:58N 35°57' W 008°48'812.9
2018-Jun-15 18:22N 35°57' W 008°39'2113.2
2018-Jun-15 16:47N 35°57' W 008°13'413.6
2018-Jun-15 16:30N 35°57' W 008°08'713.8
2018-Jun-15 16:00N 35°57' W 007°60'813.7
2018-Jun-15 15:24N 35°57' W 007°49'1013.8
2018-Jun-15 14:38N 35°57' W 007°36'213.1
2018-Jun-15 14:30N 35°57' W 007°34'813.6
2018-Jun-15 13:56N 35°57' W 007°25'8812.8
2018-Jun-15 07:03N 35°58' W 005°36'110.8
2018-Jun-15 06:59N 35°58' W 005°35'510.3
2018-Jun-15 06:30N 35°60' W 005°29'510.2
2018-Jun-15 06:00N 36°02' W 005°23'510.0
2018-Jun-15 05:30N 36°07' W 005°22'0 0.8
2018-Jun-15 04:56N 36°07' W 005°21'0 0.2
2018-Jun-15 04:26N 36°07' W 005°21'0 0.1
2018-Jun-15 03:59N 36°07' W 005°21'0 0.4
2018-Jun-15 03:26N 36°07' W 005°21'0 0.1
2018-Jun-15 02:50N 36°07' W 005°21'0 0.2
2018-Jun-15 02:29N 36°07' W 005°21'0 0.1
2018-Jun-15 01:59N 36°07' W 005°21'0 0.0
2018-Jun-15 01:26N 36°07' W 005°21'0 0.1
2018-Jun-15 00:59N 36°07' W 005°21'0 0.2
2018-Jun-15 00:26N 36°07' W 005°21'0 0.0
2018-Jun-14 23:59N 36°07' W 005°21'0 0.0
2018-Jun-14 23:29N 36°07' W 005°21'0 0.1
2018-Jun-14 22:56N 36°07' W 005°21'0 0.0
2018-Jun-14 21:44N 36°07' W 005°21'0 0.2
2018-Jun-14 21:14N 36°07' W 005°21'0 0.3
2018-Jun-14 20:59N 36°07' W 005°21'0 0.1
2018-Jun-14 20:20N 36°07' W 005°21'0 0.1
2018-Jun-14 20:00N 36°07' W 005°21'0 0.4
2018-Jun-14 19:29N 36°07' W 005°21'2 4.0
2018-Jun-14 19:00N 36°05' W 005°20'3 6.2
2018-Jun-14 18:30N 36°05' W 005°16'1 2.6
2018-Jun-14 18:00N 36°05' W 005°15'0 0.7
2018-Jun-14 17:30N 36°05' W 005°15'2 4.0
2018-Jun-14 17:01N 36°05' W 005°13'20811.6
2018-Jun-13 23:01N 37°11' W 001°07'213.3
2018-Jun-13 22:51N 37°13' W 001°05'1713.3
2018-Jun-13 21:36N 37°24' W 000°49'113.0
2018-Jun-13 21:30N 37°24' W 000°48'612.9
2018-Jun-13 21:00N 37°28' W 000°41'713.2
2018-Jun-13 20:30N 37°33' W 000°35'713.3
2018-Jun-13 20:00N 37°38' W 000°30'713.6
2018-Jun-13 19:30N 37°44' W 000°25'713.9
2018-Jun-13 19:00N 37°49' W 000°20'713.7
2018-Jun-13 18:29N 37°55' W 000°15'713.5
2018-Jun-13 18:00N 38°01' W 000°11'197 4.0
2018-Jun-11 16:23N 41°01' E 001°33'513.1
2018-Jun-11 16:00N 41°01' E 001°39'713.2
2018-Jun-11 15:30N 41°01' E 001°48'713.3
2018-Jun-11 15:00N 41°02' E 001°57'713.5
2018-Jun-11 14:30N 41°04' E 002°05'714.0
2018-Jun-11 14:00N 41°07' E 002°14'714.0
2018-Jun-11 13:31N 41°09' E 002°22'713.9
2018-Jun-11 13:00N 41°11' E 002°31'1614.1
2018-Jun-11 11:50N 41°19' E 002°51'15313.4
2018-Jun-11 00:26N 42°19' E 005°59'614.6
2018-Jun-11 00:00N 42°21' E 006°07'714.6
2018-Jun-10 23:30N 42°24' E 006°16'714.7
2018-Jun-10 23:00N 42°27' E 006°25'714.7
2018-Jun-10 22:30N 42°30' E 006°34'714.8
2018-Jun-10 22:00N 42°33' E 006°44'714.8
2018-Jun-10 21:30N 42°35' E 006°53'714.7
2018-Jun-10 21:00N 42°38' E 007°02'714.6
2018-Jun-10 20:30N 42°41' E 007°11'714.6
2018-Jun-10 20:00N 42°44' E 007°20'714.6
2018-Jun-10 19:30N 42°47' E 007°29'714.6
2018-Jun-10 19:00N 42°50' E 007°39'714.8
2018-Jun-10 18:30N 42°53' E 007°48'714.6
2018-Jun-10 18:00N 42°56' E 007°57'714.3
2018-Jun-10 17:30N 42°59' E 008°06'714.1
2018-Jun-10 17:00N 43°01' E 008°15'714.3
2018-Jun-10 16:30N 43°04' E 008°24'714.3
2018-Jun-10 16:00N 43°07' E 008°33'714.4
2018-Jun-10 15:30N 43°10' E 008°42'714.5
2018-Jun-10 15:00N 43°13' E 008°51'1414.1
2018-Jun-10 14:00N 43°18' E 009°09'813.9
2018-Jun-10 13:28N 43°21' E 009°18'614.0
2018-Jun-10 13:01N 43°24' E 009°26'714.0
2018-Jun-10 12:31N 43°26' E 009°35'714.1
2018-Jun-10 12:00N 43°29' E 009°44'713.6
2018-Jun-10 11:30N 43°31' E 009°53'713.7
2018-Jun-10 11:00N 43°30' E 010°02'713.3
2018-Jun-10 10:30N 43°28' E 010°11'5 9.7
2018-Jun-10 10:00N 43°31' E 010°17'0 0.4
2018-Jun-10 09:29N 43°31' E 010°17'0 0.1
2018-Jun-10 08:59N 43°31' E 010°17'0 0.2
2018-Jun-10 08:30N 43°31' E 010°17'0 0.2
2018-Jun-10 08:00N 43°31' E 010°17'2 4.5
2018-Jun-10 07:30N 43°33' E 010°18'2 3.9
2018-Jun-10 07:00N 43°35' E 010°19'0 0.4
2018-Jun-10 06:28N 43°35' E 010°19'0 0.0
2018-Jun-10 05:58N 43°35' E 010°19'0 0.0
2018-Jun-10 05:28N 43°35' E 010°19'0 0.0
2018-Jun-10 04:58N 43°35' E 010°19'0 0.0
2018-Jun-10 04:28N 43°35' E 010°19'0 0.0
2018-Jun-10 03:58N 43°35' E 010°19'0 0.0
2018-Jun-10 03:28N 43°35' E 010°19'0 0.0
2018-Jun-10 02:58N 43°35' E 010°19'0 0.0
2018-Jun-10 02:28N 43°35' E 010°19'0 0.0
2018-Jun-10 01:55N 43°35' E 010°19'0 0.0
2018-Jun-10 01:25N 43°35' E 010°19'0 0.0
2018-Jun-10 00:58N 43°35' E 010°19'0 0.0
2018-Jun-10 00:28N 43°35' E 010°19'0 0.0
2018-Jun-09 23:58N 43°35' E 010°19'0 0.0
2018-Jun-09 23:28N 43°35' E 010°19'0 0.0
2018-Jun-09 22:58N 43°35' E 010°19'0 0.0
2018-Jun-09 22:25N 43°35' E 010°19'0 0.0
2018-Jun-09 21:58N 43°35' E 010°19'0 0.0
2018-Jun-09 21:28N 43°35' E 010°19'0 0.0
2018-Jun-09 20:55N 43°35' E 010°19'0 0.0
2018-Jun-09 20:28N 43°35' E 010°19'0 0.0
2018-Jun-09 19:58N 43°35' E 010°19'0 0.0
2018-Jun-09 19:25N 43°35' E 010°19'0 0.0
2018-Jun-09 18:58N 43°35' E 010°19'0 0.0
2018-Jun-09 18:28N 43°35' E 010°19'0 0.0
2018-Jun-09 17:52N 43°35' E 010°19'0 0.0
2018-Jun-09 17:25N 43°35' E 010°19'0 0.0
2018-Jun-09 16:58N 43°35' E 010°19'0 0.0
2018-Jun-09 16:28N 43°35' E 010°19'0 0.0
2018-Jun-09 15:58N 43°35' E 010°19'0 0.0
2018-Jun-09 14:58N 43°35' E 010°19'0 0.0
2018-Jun-09 14:28N 43°35' E 010°19'0 0.0
2018-Jun-09 13:55N 43°35' E 010°19'0 0.0
2018-Jun-09 13:25N 43°35' E 010°19'0 0.0
2018-Jun-09 12:58N 43°35' E 010°19'0 0.0
2018-Jun-09 12:28N 43°35' E 010°19'0 0.0
2018-Jun-09 11:52N 43°35' E 010°19'0 0.0
2018-Jun-09 11:28N 43°35' E 010°19'0 0.0
2018-Jun-09 10:58N 43°35' E 010°19'0 0.0
2018-Jun-09 10:28N 43°35' E 010°19'0 0.0
2018-Jun-09 09:58N 43°35' E 010°19'0 0.0
2018-Jun-09 09:22N 43°35' E 010°19'0 0.0
2018-Jun-09 08:58N 43°35' E 010°19'0 0.0
2018-Jun-09 08:28N 43°35' E 010°19'0 0.0
2018-Jun-09 07:58N 43°35' E 010°19'0 0.0
2018-Jun-09 07:28N 43°35' E 010°19'0 0.0
2018-Jun-09 06:58N 43°35' E 010°19'0 0.0
2018-Jun-09 06:28N 43°35' E 010°19'0 0.0
2018-Jun-09 05:58N 43°35' E 010°19'0 0.0
2018-Jun-09 05:28N 43°35' E 010°19'0 0.0
2018-Jun-09 04:58N 43°35' E 010°19'0 0.0
2018-Jun-09 04:28N 43°35' E 010°19'0 0.0
2018-Jun-09 03:55N 43°35' E 010°19'0 0.0
2018-Jun-09 03:28N 43°35' E 010°19'0 0.0
2018-Jun-09 02:58N 43°35' E 010°19'0 0.0
2018-Jun-09 02:28N 43°35' E 010°19'  

Dump ship's entire track history